createdAt,value
2019-04-05T00:04:52.545Z,59
2019-04-05T00:09:55.046Z,59
2019-04-05T00:14:57.791Z,58
2019-04-05T00:19:59.947Z,57
2019-04-05T00:25:02.378Z,57
2019-04-05T00:30:04.870Z,61
2019-04-05T00:35:07.302Z,59
2019-04-05T00:40:09.739Z,60
2019-04-05T00:45:12.579Z,57
2019-04-05T00:50:14.659Z,61
2019-04-05T00:55:17.178Z,56
2019-04-05T01:00:19.579Z,58
2019-04-05T01:05:22.055Z,59
2019-04-05T01:10:24.493Z,63
2019-04-05T01:15:26.990Z,60
2019-04-05T01:20:29.410Z,61
2019-04-05T01:25:31.866Z,61
2019-04-05T01:30:34.356Z,57
2019-04-05T01:35:36.773Z,62
2019-04-05T01:40:39.273Z,61
2019-04-05T01:45:52.876Z,66
2019-04-05T01:50:44.188Z,65
2019-04-05T01:55:46.622Z,66
2019-04-05T02:00:49.121Z,68
2019-04-05T02:05:51.607Z,65
2019-04-05T02:10:53.980Z,70
2019-04-05T02:16:05.911Z,66
2019-04-05T02:20:58.897Z,71
2019-04-05T02:26:01.348Z,64
2019-04-05T02:31:03.870Z,58
2019-04-05T02:36:06.305Z,65
2019-04-05T02:41:08.715Z,60
2019-04-05T02:46:23.022Z,59
2019-04-05T02:51:13.717Z,62
2019-04-05T02:56:16.109Z,55
2019-04-05T03:01:18.551Z,60
2019-04-05T03:06:21.107Z,56
2019-04-05T03:11:23.468Z,55
2019-04-05T03:16:38.979Z,57
2019-04-05T03:21:28.437Z,59
2019-04-05T03:26:30.929Z,57
2019-04-05T03:31:33.299Z,55
2019-04-05T03:36:35.887Z,59
2019-04-05T03:41:38.258Z,55
2019-04-05T03:46:55.192Z,58
2019-04-05T03:51:43.140Z,58
2019-04-05T03:56:45.583Z,56
2019-04-05T04:01:48.042Z,60
2019-04-05T04:11:53.013Z,61
2019-04-05T04:17:10.852Z,58
2019-04-05T04:21:58.081Z,58
2019-04-05T04:27:00.397Z,54
2019-04-05T04:32:02.788Z,56
2019-04-05T04:42:07.716Z,56
2019-04-05T04:47:10.178Z,56
2019-04-05T04:52:12.643Z,56
2019-04-05T04:57:15.081Z,58
2019-04-05T05:02:17.569Z,61
2019-04-05T05:07:19.992Z,60
2019-04-05T05:12:22.457Z,60
2019-04-05T05:17:37.337Z,59
2019-04-05T05:22:27.357Z,58
2019-04-05T05:27:29.828Z,58
2019-04-05T05:32:32.341Z,57
2019-04-05T05:37:34.846Z,55
2019-04-05T05:42:37.210Z,56
2019-04-05T05:47:50.964Z,50
2019-04-05T05:52:42.127Z,52
2019-04-05T05:57:44.566Z,54
2019-04-05T06:02:48.475Z,53
2019-04-05T06:07:49.554Z,54
2019-04-05T06:12:51.939Z,53
2019-04-05T06:18:04.062Z,52
2019-04-05T06:22:56.868Z,46
2019-04-05T06:27:59.855Z,48
2019-04-05T06:33:01.782Z,48
2019-04-05T06:38:04.339Z,53
2019-04-05T06:43:07.102Z,50
2019-04-05T06:48:18.785Z,50
2019-04-05T06:53:11.942Z,50
2019-04-05T06:58:19.506Z,52
2019-04-05T07:03:16.515Z,53
2019-04-05T07:08:19.076Z,49
2019-04-05T07:13:21.647Z,46
2019-04-05T07:18:32.863Z,47
2019-04-05T07:23:26.631Z,48
2019-04-05T07:28:28.820Z,45
2019-04-05T07:33:31.256Z,51
2019-04-05T07:38:33.824Z,49
2019-04-05T07:43:36.229Z,47
2019-04-05T07:48:44.460Z,48
2019-04-05T07:53:41.462Z,46
2019-04-05T07:58:43.570Z,46
2019-04-05T08:03:46.112Z,52
2019-04-05T08:08:48.557Z,53
2019-04-05T08:13:50.957Z,50
2019-04-05T08:18:57.858Z,53
2019-04-05T08:23:56.208Z,52
2019-04-05T08:28:58.307Z,53
2019-04-05T08:34:00.777Z,53
2019-04-05T08:39:03.266Z,49
2019-04-05T08:44:05.716Z,52
2019-04-05T08:49:10.785Z,51
2019-04-05T08:54:10.934Z,52
2019-04-05T08:59:13.606Z,49
2019-04-05T09:04:15.584Z,47
2019-04-05T09:09:17.978Z,45
2019-04-05T09:14:20.924Z,49
2019-04-05T09:19:24.004Z,46
2019-04-05T09:24:25.734Z,47
2019-04-05T09:29:27.860Z,44
2019-04-05T09:34:30.525Z,45
2019-04-05T09:39:32.854Z,45
2019-04-05T09:44:35.384Z,47
2019-04-05T09:49:37.805Z,47
2019-04-05T09:54:40.618Z,45
2019-04-05T09:59:42.722Z,48
2019-04-05T10:04:45.290Z,46
2019-04-05T10:09:50.301Z,45
2019-04-05T10:14:50.229Z,45
2019-04-05T10:19:52.599Z,43
2019-04-05T10:24:55.032Z,45
2019-04-05T10:29:57.513Z,46
2019-04-05T10:34:59.939Z,47
2019-04-05T10:40:02.569Z,44
2019-04-05T10:45:04.914Z,42
2019-04-05T10:50:07.345Z,44
2019-04-05T10:55:10.164Z,43
2019-04-05T11:00:12.384Z,45
2019-04-05T11:05:14.715Z,43
2019-04-05T11:10:17.189Z,44
2019-04-05T11:15:19.679Z,44
2019-04-05T11:20:22.345Z,40
2019-04-05T11:25:25.014Z,42
2019-04-05T11:30:27.104Z,43
2019-04-05T11:35:29.467Z,41
2019-04-05T11:40:32.029Z,41
2019-04-05T11:45:34.549Z,41
2019-04-05T11:50:36.906Z,41
2019-04-05T11:55:39.707Z,41
2019-04-05T12:00:41.851Z,41
2019-04-05T12:05:44.231Z,40
2019-04-05T12:10:46.704Z,42
2019-04-05T12:15:49.233Z,45
2019-04-05T12:20:59.509Z,46
2019-04-05T12:25:54.817Z,45
2019-04-05T12:30:56.534Z,47
2019-04-05T12:35:59.017Z,45
2019-04-05T12:41:01.508Z,45
2019-04-05T12:46:03.914Z,47
2019-04-05T12:51:06.494Z,45
2019-04-05T12:56:09.232Z,46
2019-04-05T13:01:11.293Z,42
2019-04-05T13:06:14.035Z,45
2019-04-05T13:11:16.271Z,41
2019-04-05T13:16:18.686Z,40
2019-04-05T13:21:21.162Z,40
2019-04-05T13:26:26.352Z,44
2019-04-05T13:31:26.039Z,44
2019-04-05T13:36:28.528Z,45
2019-04-05T13:41:32.153Z,46
2019-04-05T13:46:33.486Z,48
2019-04-05T13:51:35.885Z,46
2019-04-05T13:56:39.497Z,46
2019-04-05T14:01:40.862Z,40
2019-04-05T14:06:43.381Z,44
2019-04-05T14:11:45.744Z,45
2019-04-05T14:16:48.480Z,43
2019-04-05T14:21:53.466Z,45
2019-04-05T14:26:53.493Z,47
2019-04-05T14:31:55.682Z,48
2019-04-05T14:36:58.149Z,48
2019-04-05T14:42:09.361Z,47
2019-04-05T14:47:03.402Z,40
2019-04-05T14:57:07.852Z,48
2019-04-05T15:02:10.283Z,47
2019-04-05T15:07:12.989Z,45
2019-04-05T15:12:15.218Z,46
2019-04-05T15:17:17.945Z,49
2019-04-05T15:22:20.173Z,46
2019-04-05T15:27:22.914Z,47
2019-04-05T15:32:25.414Z,46
2019-04-05T15:37:27.522Z,46
2019-04-05T15:42:29.977Z,50
2019-04-05T15:47:32.456Z,46
2019-04-05T15:52:34.877Z,47
2019-04-05T16:02:42.652Z,51
2019-04-05T16:07:42.246Z,48
2019-04-05T16:12:44.738Z,46
2019-04-05T16:17:47.196Z,48
2019-04-05T16:22:49.692Z,50
2019-04-05T16:27:52.224Z,48
2019-04-05T16:32:54.620Z,48
2019-04-05T16:43:02.552Z,47
2019-04-05T16:48:02.011Z,44
2019-04-05T16:53:04.425Z,45
2019-04-05T16:58:06.835Z,45
2019-04-05T17:03:09.287Z,48
2019-04-05T17:08:11.764Z,46
2019-04-05T17:13:14.201Z,47
2019-04-05T17:18:16.709Z,48
2019-04-05T17:23:19.236Z,46
2019-04-05T17:28:21.770Z,47
2019-04-05T17:33:24.088Z,49
2019-04-05T17:38:26.528Z,45
2019-04-05T17:43:29.036Z,47
2019-04-05T17:48:31.406Z,48
2019-04-05T17:53:33.891Z,46
2019-04-05T17:58:36.385Z,44
2019-04-05T18:03:38.778Z,48
2019-04-05T18:08:41.251Z,47
2019-04-05T18:13:43.693Z,45
2019-04-05T18:18:46.195Z,46
2019-04-05T18:23:48.731Z,45
2019-04-05T18:28:51.105Z,48
2019-04-05T18:33:53.563Z,50
2019-04-05T18:38:55.975Z,51
2019-04-05T18:43:58.437Z,54
2019-04-05T18:49:00.897Z,48
2019-04-05T18:54:03.443Z,54
2019-04-05T18:59:05.810Z,53
2019-04-05T19:04:08.283Z,51
2019-04-05T19:09:11.989Z,51
2019-04-05T19:14:13.205Z,50
2019-04-05T19:19:17.701Z,50
2019-04-05T19:24:18.116Z,54
2019-04-05T19:29:20.630Z,54
2019-04-05T19:49:30.455Z,57
2019-04-05T19:54:32.914Z,54
2019-04-05T19:59:35.366Z,49
2019-04-05T20:04:37.814Z,52
2019-04-05T20:09:40.276Z,57
2019-04-05T20:14:42.673Z,58
2019-04-05T20:19:45.197Z,51
2019-04-05T20:24:47.675Z,53
2019-04-05T20:29:50.111Z,53
2019-04-05T20:34:52.502Z,58
2019-04-05T20:39:54.949Z,50
2019-04-05T20:44:57.491Z,57
2019-04-05T20:49:59.882Z,63
2019-04-05T20:55:02.410Z,53
2019-04-05T21:00:04.810Z,53
2019-04-05T21:05:07.264Z,54
2019-04-05T21:10:09.700Z,50
2019-04-05T21:15:12.191Z,55
2019-04-05T21:20:14.648Z,54
2019-04-05T21:25:17.082Z,60
2019-04-05T21:30:19.786Z,56
2019-04-05T21:35:22.236Z,57
2019-04-05T21:40:24.466Z,55
2019-04-05T21:45:26.973Z,60
2019-04-05T21:50:29.354Z,59
2019-04-05T21:55:31.838Z,59
2019-04-05T22:00:34.323Z,51
2019-04-05T22:05:36.788Z,58
2019-04-05T22:10:39.301Z,61
2019-04-05T22:15:41.657Z,56
2019-04-05T22:20:44.132Z,54
2019-04-05T22:25:46.665Z,52
2019-04-05T22:30:49.021Z,53
2019-04-05T22:40:53.949Z,45
2019-04-05T22:45:56.606Z,40
2019-04-05T22:50:58.877Z,34
2019-04-05T22:56:01.324Z,27
2019-04-05T23:01:03.784Z,23
2019-04-05T23:06:06.323Z,22
2019-04-05T23:11:08.710Z,20
2019-04-05T23:16:11.200Z,26
2019-04-05T23:21:13.667Z,30
2019-04-05T23:26:16.076Z,40
2019-04-05T23:31:18.563Z,39
2019-04-05T23:36:21.010Z,37
2019-04-05T23:41:23.490Z,33
2019-04-05T23:46:25.959Z,40
2019-04-05T23:51:28.378Z,35
2019-04-05T23:56:30.842Z,39
